Time;durP1;ratioP1;P1;durP2;ratioP2;P2;SDS_P1;SDS_P2;PMS_P1;PMS_P2;Temp;Humidity;BMP_temperature;BMP_pressure;BME280_temperature;BME280_humidity;BME280_pressure;Samples;Min_cycle;Max_cycle;Signal;HPM_P1;HPM_P2
2023/10/31 00:01:52;;;;;;;;;;;21.30;70.60;;;;;;5027367;28;1454;-71
2023/10/31 00:04:17;;;;;;;;;;;21.30;70.60;;;;;;5025752;28;1898;-71
2023/10/31 00:06:43;;;;;;;;;;;21.30;70.70;;;;;;5004762;28;1551;-71
2023/10/31 00:09:10;;;;;;;;;;;21.30;70.70;;;;;;5026064;28;1324;-71
2023/10/31 00:11:36;;;;;;;;;;;21.30;70.70;;;;;;5027120;28;1312;-71
2023/10/31 00:14:01;;;;;;;;;;;21.30;70.70;;;;;;5026232;28;1284;-71
2023/10/31 00:16:27;;;;;;;;;;;21.30;70.80;;;;;;5027111;28;1426;-70
2023/10/31 00:18:52;;;;;;;;;;;21.30;70.80;;;;;;5026275;28;1384;-71
2023/10/31 00:21:18;;;;;;;;;;;21.30;70.80;;;;;;5027803;28;1351;-71
2023/10/31 00:23:47;;;;;;;;;;;21.30;70.80;;;;;;5026278;28;1967;-71
2023/10/31 00:26:12;;;;;;;;;;;21.20;70.80;;;;;;5026960;28;1487;-71
2023/10/31 00:28:38;;;;;;;;;;;21.20;70.80;;;;;;5005074;28;1310;-70
2023/10/31 00:31:03;;;;;;;;;;;21.20;70.80;;;;;;5024961;28;1404;-70
2023/10/31 00:33:29;;;;;;;;;;;21.20;70.80;;;;;;5001901;28;1471;-70
2023/10/31 00:35:55;;;;;;;;;;;21.30;71.00;;;;;;5025716;28;1131;-70
2023/10/31 00:38:20;;;;;;;;;;;21.30;71.60;;;;;;5028279;28;1158;-71
2023/10/31 00:40:46;;;;;;;;;;;21.30;71.60;;;;;;5028486;28;1237;-70
2023/10/31 00:43:11;;;;;;;;;;;21.40;71.80;;;;;;5028343;28;1906;-71
2023/10/31 00:45:37;;;;;;;;;;;21.40;71.70;;;;;;5025639;28;1505;-71
2023/10/31 00:48:02;;;;;;;;;;;21.40;71.70;;;;;;5025742;28;1533;-71
2023/10/31 00:50:28;;;;;;;;;;;21.50;71.70;;;;;;5026793;28;1236;-70
2023/10/31 00:52:54;;;;;;;;;;;21.50;71.60;;;;;;5004977;28;1252;-71
2023/10/31 00:55:19;;;;;;;;;;;21.50;71.50;;;;;;5027202;28;1465;-71
2023/10/31 00:57:45;;;;;;;;;;;21.50;71.40;;;;;;5025556;28;1535;-71
2023/10/31 01:00:11;;;;;;;;;;;21.60;71.40;;;;;;5026821;28;1355;-71
2023/10/31 01:02:36;;;;;;;;;;;21.70;71.40;;;;;;5026374;28;1968;-70
2023/10/31 01:05:02;;;;;;;;;;;21.70;71.20;;;;;;5026623;28;1543;-71
2023/10/31 01:07:27;;;;;;;;;;;21.70;71.10;;;;;;5026091;28;1254;-71
2023/10/31 01:09:52;;;;;;;;;;;21.80;71.10;;;;;;5026207;28;1426;-71
2023/10/31 01:12:18;;;;;;;;;;;21.80;71.00;;;;;;5026683;28;1186;-70
2023/10/31 01:14:43;;;;;;;;;;;21.90;71.00;;;;;;5026466;28;1378;-71
2023/10/31 01:17:09;;;;;;;;;;;21.90;70.90;;;;;;5026074;28;1267;-70
2023/10/31 01:19:34;;;;;;;;;;;21.90;70.80;;;;;;5027495;28;1527;-70
2023/10/31 01:22:00;;;;;;;;;;;22.00;70.80;;;;;;5026158;28;1169;-70
2023/10/31 01:24:25;;;;;;;;;;;22.00;70.70;;;;;;5026336;28;1938;-71
2023/10/31 01:26:51;;;;;;;;;;;22.10;70.70;;;;;;5025086;28;1556;-71
2023/10/31 01:29:17;;;;;;;;;;;22.10;70.50;;;;;;5027249;28;1322;-71
2023/10/31 01:31:42;;;;;;;;;;;22.10;70.40;;;;;;5026080;28;1450;-70
2023/10/31 01:34:08;;;;;;;;;;;22.20;70.40;;;;;;5025477;28;863;-71
2023/10/31 01:36:33;;;;;;;;;;;22.20;70.40;;;;;;5007416;28;1273;-71
2023/10/31 01:38:59;;;;;;;;;;;22.20;70.40;;;;;;5013132;28;1139;-70
2023/10/31 01:41:24;;;;;;;;;;;22.20;70.50;;;;;;5030358;28;1543;-71
2023/10/31 01:43:50;;;;;;;;;;;22.20;70.50;;;;;;5024944;28;1984;-71
2023/10/31 01:46:15;;;;;;;;;;;22.20;70.30;;;;;;5005220;28;1140;-70
2023/10/31 01:48:40;;;;;;;;;;;22.20;70.30;;;;;;5030458;28;1453;-71
2023/10/31 01:51:07;;;;;;;;;;;22.10;70.30;;;;;;5031348;28;1437;-71
2023/10/31 01:53:33;;;;;;;;;;;22.10;70.40;;;;;;5030173;28;1258;-71
2023/10/31 01:55:59;;;;;;;;;;;22.10;70.50;;;;;;5028357;28;1758;-71
2023/10/31 01:58:34;;;;;;;;;;;22.10;70.40;;;;;;5008855;28;1418;-71
2023/10/31 02:01:00;;;;;;;;;;;22.10;70.50;;;;;;5029208;28;1319;-71
2023/10/31 02:03:26;;;;;;;;;;;22.10;70.50;;;;;;5011989;28;1906;-71
2023/10/31 02:05:51;;;;;;;;;;;22.10;70.60;;;;;;5027650;28;1322;-70
2023/10/31 02:08:17;;;;;;;;;;;22.20;70.70;;;;;;5030055;28;1351;-71
2023/10/31 02:10:42;;;;;;;;;;;22.20;70.80;;;;;;5029457;28;1349;-71
2023/10/31 02:13:15;;;;;;;;;;;22.20;70.90;;;;;;5029777;28;1282;-71
2023/10/31 02:15:40;;;;;;;;;;;22.20;71.00;;;;;;5026959;28;1462;-70
2023/10/31 02:18:06;;;;;;;;;;;22.20;71.00;;;;;;5009858;28;1381;-71
2023/10/31 02:20:31;;;;;;;;;;;22.20;71.10;;;;;;5008261;28;1463;-70
2023/10/31 02:22:57;;;;;;;;;;;22.20;71.10;;;;;;5029516;28;1959;-70
2023/10/31 02:25:22;;;;;;;;;;;22.20;71.10;;;;;;5029033;28;1581;-71
2023/10/31 02:27:48;;;;;;;;;;;22.20;71.10;;;;;;5027357;28;1540;-70
2023/10/31 02:30:14;;;;;;;;;;;22.20;71.20;;;;;;5008857;28;1396;-71
2023/10/31 02:32:40;;;;;;;;;;;22.30;71.30;;;;;;5028623;28;1450;-71
2023/10/31 02:35:05;;;;;;;;;;;22.30;71.30;;;;;;5029656;28;1413;-70
2023/10/31 02:37:31;;;;;;;;;;;22.30;71.30;;;;;;5027884;28;1366;-71
2023/10/31 02:39:56;;;;;;;;;;;22.30;71.40;;;;;;5026738;28;1632;-71
2023/10/31 02:42:22;;;;;;;;;;;22.30;71.40;;;;;;5027388;28;1420;-71
2023/10/31 02:44:47;;;;;;;;;;;22.30;71.50;;;;;;5024182;28;1934;-70
2023/10/31 02:47:13;;;;;;;;;;;22.30;71.40;;;;;;5025961;28;1278;-70
2023/10/31 02:49:38;;;;;;;;;;;22.20;71.10;;;;;;5025272;28;1571;-71
2023/10/31 02:52:04;;;;;;;;;;;22.20;71.10;;;;;;5027987;28;1405;-71
2023/10/31 02:54:29;;;;;;;;;;;22.20;71.10;;;;;;5027332;28;1335;-71
2023/10/31 02:56:54;;;;;;;;;;;22.10;71.80;;;;;;5026999;28;1227;-70
2023/10/31 02:59:20;;;;;;;;;;;22.10;71.10;;;;;;5011163;28;1364;-69
2023/10/31 03:01:45;;;;;;;;;;;22.10;71.20;;;;;;5028852;28;1308;-70
2023/10/31 03:04:11;;;;;;;;;;;22.00;71.20;;;;;;5028819;28;1959;-69
2023/10/31 03:06:36;;;;;;;;;;;22.00;71.20;;;;;;5028529;28;1323;-71
2023/10/31 03:09:02;;;;;;;;;;;22.00;71.30;;;;;;5029260;28;1622;-70
2023/10/31 03:11:27;;;;;;;;;;;21.90;71.30;;;;;;5026211;28;1395;-70
2023/10/31 03:13:56;;;;;;;;;;;21.90;71.30;;;;;;5028336;28;1386;-70
2023/10/31 03:16:22;;;;;;;;;;;21.90;71.30;;;;;;5028696;28;1242;-70
2023/10/31 03:18:47;;;;;;;;;;;21.90;71.40;;;;;;5027727;28;1240;-70
2023/10/31 03:21:13;;;;;;;;;;;21.90;71.40;;;;;;5028497;28;1308;-70
2023/10/31 03:23:38;;;;;;;;;;;21.80;71.40;;;;;;5029516;28;1956;-70
2023/10/31 03:26:04;;;;;;;;;;;21.80;72.20;;;;;;5030306;28;1108;-71
2023/10/31 03:28:29;;;;;;;;;;;21.80;71.50;;;;;;5028013;28;1089;-70
2023/10/31 03:30:55;;;;;;;;;;;21.80;71.60;;;;;;5027927;28;1300;-70
2023/10/31 03:33:20;;;;;;;;;;;21.70;71.60;;;;;;5028575;28;1156;-70
2023/10/31 03:35:46;;;;;;;;;;;21.70;71.60;;;;;;5003630;28;1364;-70
2023/10/31 03:38:11;;;;;;;;;;;21.70;71.60;;;;;;5027683;28;1384;-70
2023/10/31 03:40:37;;;;;;;;;;;21.70;71.70;;;;;;5003554;28;1358;-70
2023/10/31 03:43:06;;;;;;;;;;;21.70;71.70;;;;;;5026102;28;1967;-70
2023/10/31 03:45:31;;;;;;;;;;;21.70;71.70;;;;;;5028751;28;1497;-70
2023/10/31 03:47:57;;;;;;;;;;;21.60;71.70;;;;;;5006857;28;1343;-70
2023/10/31 03:50:22;;;;;;;;;;;21.60;71.70;;;;;;5008432;28;1386;-70
2023/10/31 03:52:48;;;;;;;;;;;21.60;71.80;;;;;;5028030;28;1409;-70
2023/10/31 03:55:13;;;;;;;;;;;21.60;71.80;;;;;;5028486;28;1395;-70
2023/10/31 03:57:39;;;;;;;;;;;21.60;71.80;;;;;;5026728;28;1374;-69
2023/10/31 04:00:07;;;;;;;;;;;21.60;71.80;;;;;;5009383;28;1336;-70
2023/10/31 04:02:32;;;;;;;;;;;21.60;71.80;;;;;;5007406;28;1987;-69
2023/10/31 04:04:58;;;;;;;;;;;21.50;71.80;;;;;;5025190;28;1354;-70
2023/10/31 04:07:23;;;;;;;;;;;21.50;71.80;;;;;;5008409;28;1717;-70
2023/10/31 04:09:49;;;;;;;;;;;21.50;71.80;;;;;;5027504;28;1437;-70
2023/10/31 04:12:17;;;;;;;;;;;21.50;71.90;;;;;;5009463;28;1642;-69
2023/10/31 04:14:43;;;;;;;;;;;21.50;71.90;;;;;;5026433;28;1505;-70
2023/10/31 04:17:09;;;;;;;;;;;21.50;71.90;;;;;;5026574;28;1472;-69
2023/10/31 04:19:36;;;;;;;;;;;21.50;71.90;;;;;;5007712;28;1625;-71
2023/10/31 04:22:01;;;;;;;;;;;21.50;71.90;;;;;;5002584;28;1203;-70
2023/10/31 04:24:27;;;;;;;;;;;21.50;71.90;;;;;;5027074;28;1914;-70
2023/10/31 04:26:52;;;;;;;;;;;21.50;72.00;;;;;;5025712;28;1299;-70
2023/10/31 04:29:18;;;;;;;;;;;21.50;72.00;;;;;;5027822;28;1449;-70
2023/10/31 04:31:46;;;;;;;;;;;21.40;72.00;;;;;;5025594;28;1288;-71
2023/10/31 04:34:12;;;;;;;;;;;21.40;72.00;;;;;;5009969;28;1216;-70
2023/10/31 04:36:37;;;;;;;;;;;21.40;72.00;;;;;;5007120;28;1364;-70
2023/10/31 04:39:03;;;;;;;;;;;21.40;72.00;;;;;;5027171;28;1039;-70
2023/10/31 04:41:28;;;;;;;;;;;21.40;72.00;;;;;;5027895;28;1244;-70
2023/10/31 04:43:54;;;;;;;;;;;21.40;72.00;;;;;;5027525;28;1918;-71
2023/10/31 04:46:19;;;;;;;;;;;21.40;72.00;;;;;;5004197;28;1335;-70
2023/10/31 04:48:45;;;;;;;;;;;21.40;72.10;;;;;;5027564;28;1257;-71
2023/10/31 04:51:10;;;;;;;;;;;21.30;72.00;;;;;;5007814;28;1371;-71
2023/10/31 04:53:35;;;;;;;;;;;21.40;72.10;;;;;;5028561;28;1185;-71
2023/10/31 04:56:01;;;;;;;;;;;21.40;72.10;;;;;;5004334;28;1784;-69
2023/10/31 04:58:26;;;;;;;;;;;21.30;72.00;;;;;;5026864;28;1550;-69
2023/10/31 05:00:52;;;;;;;;;;;21.30;72.10;;;;;;5026530;28;1288;-68
2023/10/31 05:03:17;;;;;;;;;;;21.30;72.10;;;;;;5027046;28;1900;-69
2023/10/31 05:05:43;;;;;;;;;;;21.30;72.10;;;;;;5025681;28;1362;-70
2023/10/31 05:08:08;;;;;;;;;;;21.30;72.10;;;;;;5027095;28;1056;-70
2023/10/31 05:10:34;;;;;;;;;;;21.30;72.10;;;;;;5027777;28;1481;-71
2023/10/31 05:13:01;;;;;;;;;;;21.30;72.10;;;;;;5004096;28;1497;-69
2023/10/31 05:15:26;;;;;;;;;;;21.30;72.10;;;;;;5031440;28;1242;-69
2023/10/31 05:17:52;;;;;;;;;;;21.30;72.10;;;;;;5029299;28;1110;-69
2023/10/31 05:20:17;;;;;;;;;;;21.30;72.00;;;;;;5030116;28;1359;-69
2023/10/31 05:22:42;;;;;;;;;;;21.30;72.00;;;;;;5030626;28;1961;-70
2023/10/31 05:25:08;;;;;;;;;;;21.30;72.00;;;;;;5030916;28;1065;-70
2023/10/31 05:27:33;;;;;;;;;;;21.30;71.90;;;;;;5001542;28;1343;-71
2023/10/31 05:29:59;;;;;;;;;;;21.30;72.60;;;;;;5030382;28;1372;-70
2023/10/31 05:32:24;;;;;;;;;;;21.30;71.80;;;;;;5003660;28;1275;-70
2023/10/31 05:34:50;;;;;;;;;;;21.30;71.70;;;;;;5030275;28;1316;-69
2023/10/31 05:37:15;;;;;;;;;;;21.40;71.70;;;;;;5029896;28;1522;-70
2023/10/31 05:39:41;;;;;;;;;;;21.40;72.50;;;;;;5031101;28;1268;-70
2023/10/31 05:42:06;;;;;;;;;;;21.40;71.60;;;;;;5030757;28;1395;-70
2023/10/31 05:44:32;;;;;;;;;;;21.40;71.60;;;;;;5028120;28;1910;-70
2023/10/31 05:46:57;;;;;;;;;;;21.40;71.50;;;;;;5029352;28;1287;-70
2023/10/31 05:49:23;;;;;;;;;;;21.40;71.50;;;;;;5029712;28;1506;-70
2023/10/31 05:51:51;;;;;;;;;;;21.40;71.50;;;;;;5027700;28;1433;-70
2023/10/31 05:54:17;;;;;;;;;;;21.40;71.40;;;;;;5030184;28;1153;-69
2023/10/31 05:56:44;;;;;;;;;;;21.40;71.40;;;;;;5008060;28;1507;-69
2023/10/31 05:59:10;;;;;;;;;;;21.40;71.30;;;;;;5030199;28;943;-70
2023/10/31 06:01:35;;;;;;;;;;;21.40;71.30;;;;;;5008670;28;1382;-71
2023/10/31 06:04:01;;;;;;;;;;;21.40;71.30;;;;;;5030810;28;1914;-70
2023/10/31 06:06:26;;;;;;;;;;;21.40;71.30;;;;;;5027016;28;931;-70
2023/10/31 06:08:52;;;;;;;;;;;21.40;71.20;;;;;;5008751;28;1257;-70
2023/10/31 06:11:17;;;;;;;;;;;21.50;71.20;;;;;;5009060;28;1285;-69
2023/10/31 06:13:43;;;;;;;;;;;21.40;71.10;;;;;;5008970;28;1151;-69
2023/10/31 06:16:08;;;;;;;;;;;21.40;71.10;;;;;;5005859;28;1507;-70
2023/10/31 06:18:34;;;;;;;;;;;21.50;71.10;;;;;;5029587;28;1044;-69
2023/10/31 06:21:00;;;;;;;;;;;21.40;71.00;;;;;;5030369;28;1371;-70
2023/10/31 06:23:25;;;;;;;;;;;21.50;71.10;;;;;;5006671;28;1906;-71
2023/10/31 06:25:51;;;;;;;;;;;21.50;71.00;;;;;;5027708;28;1386;-70
2023/10/31 06:28:16;;;;;;;;;;;21.40;70.90;;;;;;5028889;28;1495;-69
2023/10/31 06:30:42;;;;;;;;;;;21.50;71.00;;;;;;5029765;28;1485;-69
2023/10/31 06:33:08;;;;;;;;;;;21.40;70.90;;;;;;5029821;28;1289;-68
2023/10/31 06:35:34;;;;;;;;;;;21.40;70.90;;;;;;5028884;28;1343;-69
2023/10/31 06:38:00;;;;;;;;;;;21.50;70.90;;;;;;5026649;28;1328;-69
2023/10/31 06:40:25;;;;;;;;;;;21.50;70.90;;;;;;5029665;28;1498;-70
2023/10/31 06:42:54;;;;;;;;;;;21.40;70.80;;;;;;5007551;28;1957;-71
2023/10/31 06:45:19;;;;;;;;;;;21.40;71.50;;;;;;5027298;28;1193;-70
2023/10/31 06:47:45;;;;;;;;;;;21.50;70.90;;;;;;5007560;28;1544;-72
2023/10/31 06:50:10;;;;;;;;;;;21.50;70.80;;;;;;5030453;28;1596;-70
2023/10/31 06:52:36;;;;;;;;;;;21.50;70.80;;;;;;5029313;28;1282;-71
2023/10/31 06:55:01;;;;;;;;;;;21.50;70.80;;;;;;5004702;28;1269;-71
2023/10/31 06:57:27;;;;;;;;;;;21.50;70.90;;;;;;5028669;28;933;-69
2023/10/31 06:59:53;;;;;;;;;;;21.50;70.90;;;;;;5027061;28;1325;-69
2023/10/31 07:02:18;;;;;;;;;;;21.40;70.90;;;;;;5028579;28;1529;-69
2023/10/31 07:04:44;;;;;;;;;;;21.50;70.90;;;;;;5027200;28;1923;-70
2023/10/31 07:07:09;;;;;;;;;;;21.40;70.90;;;;;;5026909;28;1273;-69
2023/10/31 07:09:35;;;;;;;;;;;21.40;71.00;;;;;;5028814;28;1339;-69
2023/10/31 07:12:00;;;;;;;;;;;21.40;70.90;;;;;;5010961;28;1619;-68
2023/10/31 07:14:25;;;;;;;;;;;21.40;70.90;;;;;;5029309;28;1586;-69
2023/10/31 07:16:51;;;;;;;;;;;21.40;70.90;;;;;;5027143;28;1393;-70
2023/10/31 07:19:16;;;;;;;;;;;21.40;71.00;;;;;;5027734;28;1427;-71
2023/10/31 07:21:42;;;;;;;;;;;21.40;71.00;;;;;;5027600;28;1209;-71
2023/10/31 07:24:08;;;;;;;;;;;21.40;71.00;;;;;;5018071;28;2094;-68
2023/10/31 07:26:34;;;;;;;;;;;21.40;71.00;;;;;;5027949;28;1360;-70
2023/10/31 07:29:00;;;;;;;;;;;21.40;71.10;;;;;;5006597;28;1553;-69
2023/10/31 07:31:25;;;;;;;;;;;21.40;71.10;;;;;;5028174;28;1395;-70
2023/10/31 07:33:51;;;;;;;;;;;21.40;71.10;;;;;;5025509;28;1286;-68
2023/10/31 07:36:16;;;;;;;;;;;21.40;71.90;;;;;;5026903;28;1417;-70
2023/10/31 07:38:42;;;;;;;;;;;21.40;71.10;;;;;;5025208;28;1250;-69
2023/10/31 07:41:07;;;;;;;;;;;21.30;71.10;;;;;;5026423;28;1268;-69
2023/10/31 07:43:32;;;;;;;;;;;21.40;71.20;;;;;;5027182;28;1902;-69
2023/10/31 07:45:58;;;;;;;;;;;21.30;71.10;;;;;;5026647;28;1456;-68
2023/10/31 07:48:23;;;;;;;;;;;21.30;71.20;;;;;;5025115;28;1309;-70
2023/10/31 07:50:49;;;;;;;;;;;21.30;71.20;;;;;;5024680;28;1615;-69
2023/10/31 07:53:14;;;;;;;;;;;21.30;71.20;;;;;;5026799;28;1403;-67
2023/10/31 07:55:40;;;;;;;;;;;21.30;71.20;;;;;;5026009;28;1480;-70
2023/10/31 07:58:05;;;;;;;;;;;21.30;71.30;;;;;;5007934;28;1289;-71
2023/10/31 08:00:32;;;;;;;;;;;21.30;71.30;;;;;;5027534;28;2244;-70
2023/10/31 08:02:58;;;;;;;;;;;21.30;71.30;;;;;;5026493;28;1910;-69
2023/10/31 08:05:24;;;;;;;;;;;21.30;71.30;;;;;;5011147;28;1333;-70
2023/10/31 08:07:49;;;;;;;;;;;21.30;72.00;;;;;;5028335;28;1326;-69
2023/10/31 08:10:15;;;;;;;;;;;21.30;71.30;;;;;;5028336;28;1372;-69
2023/10/31 08:12:40;;;;;;;;;;;21.30;71.40;;;;;;5027793;28;1420;-69
2023/10/31 08:15:06;;;;;;;;;;;21.30;71.40;;;;;;5028360;28;1325;-70
2023/10/31 08:17:31;;;;;;;;;;;21.30;71.40;;;;;;5028334;28;1188;-71
2023/10/31 08:19:57;;;;;;;;;;;21.20;71.30;;;;;;5026797;28;1609;-69
2023/10/31 08:22:22;;;;;;;;;;;21.20;71.30;;;;;;5007533;28;1504;-70
2023/10/31 08:24:48;;;;;;;;;;;21.30;71.40;;;;;;5023765;28;1997;-70
2023/10/31 08:27:13;;;;;;;;;;;21.20;71.40;;;;;;5025129;28;1195;-69
2023/10/31 08:29:39;;;;;;;;;;;21.20;71.40;;;;;;5004495;28;1304;-71
2023/10/31 08:32:05;;;;;;;;;;;21.20;71.40;;;;;;5017602;28;4058;-72
2023/10/31 08:34:30;;;;;;;;;;;21.20;71.40;;;;;;5025699;28;1414;-71
2023/10/31 08:36:57;;;;;;;;;;;21.20;71.40;;;;;;5024605;28;1630;-71
2023/10/31 08:39:22;;;;;;;;;;;21.20;71.50;;;;;;5026579;28;1021;-72
2023/10/31 08:41:51;;;;;;;;;;;21.20;71.40;;;;;;5026244;28;1199;-71
2023/10/31 08:44:17;;;;;;;;;;;21.20;71.40;;;;;;5026189;28;1968;-71
2023/10/31 08:46:42;;;;;;;;;;;21.20;71.40;;;;;;4999063;28;1189;-71
2023/10/31 08:49:08;;;;;;;;;;;21.20;71.40;;;;;;5031225;28;1030;-71
2023/10/31 08:51:33;;;;;;;;;;;21.20;71.50;;;;;;5031701;28;1326;-71
2023/10/31 08:53:59;;;;;;;;;;;21.20;71.50;;;;;;5029068;28;1161;-71
2023/10/31 08:56:24;;;;;;;;;;;21.20;71.50;;;;;;5014657;28;1288;-71
2023/10/31 08:58:49;;;;;;;;;;;21.20;72.20;;;;;;5030559;28;1417;-71
2023/10/31 09:01:15;;;;;;;;;;;21.20;71.50;;;;;;5028628;28;1484;-71
2023/10/31 09:03:40;;;;;;;;;;;21.20;71.40;;;;;;5011471;28;1898;-73
2023/10/31 09:06:06;;;;;;;;;;;21.20;71.40;;;;;;5029291;28;1249;-71
2023/10/31 09:08:31;;;;;;;;;;;21.20;71.40;;;;;;5031172;28;1004;-71
2023/10/31 09:10:57;;;;;;;;;;;21.20;71.40;;;;;;5031020;28;1269;-71
2023/10/31 09:13:22;;;;;;;;;;;21.20;71.30;;;;;;5030196;28;959;-71
2023/10/31 09:15:49;;;;;;;;;;;21.30;71.30;;;;;;5027487;28;1802;-72
2023/10/31 09:18:15;;;;;;;;;;;21.30;71.20;;;;;;5029859;28;1444;-72
2023/10/31 09:20:40;;;;;;;;;;;21.30;71.00;;;;;;5012867;28;1438;-71
2023/10/31 09:23:06;;;;;;;;;;;21.40;71.00;;;;;;5006774;28;1965;-71
2023/10/31 09:25:32;;;;;;;;;;;21.40;70.80;;;;;;5030003;28;1434;-72
2023/10/31 09:27:58;;;;;;;;;;;21.40;70.70;;;;;;5029559;28;1500;-70
2023/10/31 09:30:25;;;;;;;;;;;21.40;70.50;;;;;;5009941;28;1406;-71
2023/10/31 09:32:52;;;;;;;;;;;21.50;70.50;;;;;;5029194;28;1247;-70
2023/10/31 09:35:17;;;;;;;;;;;21.50;70.40;;;;;;5030312;28;1325;-71
2023/10/31 09:37:43;;;;;;;;;;;21.50;70.30;;;;;;5009730;28;1519;-71
2023/10/31 09:40:10;;;;;;;;;;;21.50;70.20;;;;;;5030083;28;1708;-71
2023/10/31 09:42:35;;;;;;;;;;;21.50;70.20;;;;;;5008820;28;1410;-72
2023/10/31 09:45:01;;;;;;;;;;;21.50;70.20;;;;;;5010517;28;1898;-71
2023/10/31 09:47:26;;;;;;;;;;;21.50;70.20;;;;;;5030114;28;1155;-71
2023/10/31 09:49:52;;;;;;;;;;;21.50;70.10;;;;;;5030945;28;1288;-73
2023/10/31 09:52:20;;;;;;;;;;;21.50;70.10;;;;;;5005669;28;1170;-74
2023/10/31 09:54:45;;;;;;;;;;;21.50;70.10;;;;;;5029678;28;1259;-71
2023/10/31 09:57:11;;;;;;;;;;;21.50;70.10;;;;;;5007475;28;1281;-71
2023/10/31 09:59:36;;;;;;;;;;;21.50;70.10;;;;;;5029945;28;1485;-73
2023/10/31 10:02:02;;;;;;;;;;;21.50;70.20;;;;;;5028376;28;1349;-69
2023/10/31 10:04:27;;;;;;;;;;;21.50;70.20;;;;;;5029770;28;1914;-70
2023/10/31 10:06:58;;;;;;;;;;;21.50;70.10;;;;;;5027035;28;1407;-71
2023/10/31 10:09:24;;;;;;;;;;;21.50;70.20;;;;;;5029748;28;1249;-71
2023/10/31 10:11:51;;;;;;;;;;;21.50;70.20;;;;;;5028509;28;1678;-70
2023/10/31 10:14:16;;;;;;;;;;;21.50;70.20;;;;;;5010839;28;1537;-71
2023/10/31 10:16:42;;;;;;;;;;;21.50;70.30;;;;;;5010283;28;2248;-70
2023/10/31 10:19:15;;;;;;;;;;;21.50;70.30;;;;;;5009304;28;2092;-73
2023/10/31 10:21:46;;;;;;;;;;;21.50;70.30;;;;;;5012499;28;2006;-71
2023/10/31 10:24:11;;;;;;;;;;;21.50;70.30;;;;;;5016471;28;2139;-70
2023/10/31 10:26:37;;;;;;;;;;;21.50;70.40;;;;;;5028584;28;2492;-70
2023/10/31 10:29:02;;;;;;;;;;;21.50;70.40;;;;;;5028406;28;1433;-71
2023/10/31 10:31:28;;;;;;;;;;;21.50;70.80;;;;;;5031403;28;1326;-70
2023/10/31 10:33:53;;;;;;;;;;;21.40;70.40;;;;;;5028026;28;1295;-70
2023/10/31 10:36:19;;;;;;;;;;;21.50;70.50;;;;;;5029217;28;1525;-69
2023/10/31 10:38:44;;;;;;;;;;;21.40;70.40;;;;;;5027262;28;1291;-69
2023/10/31 10:41:10;;;;;;;;;;;21.40;70.50;;;;;;5028408;28;1452;-69
2023/10/31 10:43:37;;;;;;;;;;;21.40;70.50;;;;;;5010137;28;1898;-69
2023/10/31 10:46:02;;;;;;;;;;;21.40;70.50;;;;;;5006169;28;1506;-69
2023/10/31 10:48:28;;;;;;;;;;;21.40;70.50;;;;;;5030249;28;1461;-69
2023/10/31 10:51:15;;;;;;;;;;;21.40;70.60;;;;;;5029004;28;1323;-71
2023/10/31 10:53:43;;;;;;;;;;;21.40;70.60;;;;;;5012412;28;1335;-69
2023/10/31 10:56:12;;;;;;;;;;;21.30;70.60;;;;;;5011793;28;1330;-70
2023/10/31 10:58:58;;;;;;;;;;;21.40;70.70;;;;;;5009291;28;1313;-71
2023/10/31 11:01:24;;;;;;;;;;;21.40;70.70;;;;;;5028844;28;1398;-70
2023/10/31 11:03:49;;;;;;;;;;;21.40;70.80;;;;;;5004670;28;1940;-69
2023/10/31 11:06:15;;;;;;;;;;;21.40;70.80;;;;;;4987988;28;1492;-70
2023/10/31 11:08:40;;;;;;;;;;;21.30;70.80;;;;;;5011105;28;2001;-69
2023/10/31 11:11:05;;;;;;;;;;;21.30;70.80;;;;;;5004097;28;1472;-69
2023/10/31 11:13:31;;;;;;;;;;;21.30;70.90;;;;;;5026304;28;2281;-69
2023/10/31 11:15:57;;;;;;;;;;;21.30;70.90;;;;;;5009758;28;2503;-69
2023/10/31 11:18:23;;;;;;;;;;;21.30;70.80;;;;;;5006638;28;1612;-70
2023/10/31 11:20:48;;;;;;;;;;;21.30;71.60;;;;;;5029074;28;1852;-70
2023/10/31 11:23:14;;;;;;;;;;;21.30;71.00;;;;;;5028116;28;1922;-69
2023/10/31 11:25:43;;;;;;;;;;;21.30;70.90;;;;;;5028199;28;1133;-69
2023/10/31 11:28:12;;;;;;;;;;;21.30;71.00;;;;;;5004048;28;1285;-71
2023/10/31 11:30:37;;;;;;;;;;;21.30;71.00;;;;;;5029076;28;1430;-70
2023/10/31 11:33:05;;;;;;;;;;;21.30;71.00;;;;;;5027115;28;1304;-70
2023/10/31 11:35:30;;;;;;;;;;;21.30;71.00;;;;;;5028027;28;1129;-70
2023/10/31 11:38:03;;;;;;;;;;;21.30;71.10;;;;;;5005262;28;1503;-70
2023/10/31 11:40:29;;;;;;;;;;;21.20;71.00;;;;;;5010052;28;1406;-68
2023/10/31 11:42:58;;;;;;;;;;;21.20;71.10;;;;;;5026992;28;1961;-69
2023/10/31 11:45:28;;;;;;;;;;;21.20;71.10;;;;;;5026312;28;1156;-69
2023/10/31 11:47:53;;;;;;;;;;;21.20;71.10;;;;;;5009078;28;1516;-71
2023/10/31 11:50:19;;;;;;;;;;;21.20;71.10;;;;;;5005722;28;1312;-71
2023/10/31 11:52:44;;;;;;;;;;;21.20;71.20;;;;;;5026967;28;1446;-70
2023/10/31 11:55:13;;;;;;;;;;;21.20;71.20;;;;;;5014918;28;1115;-71
2023/10/31 11:57:38;;;;;;;;;;;21.20;71.20;;;;;;5026646;28;808;-71
2023/10/31 12:00:04;;;;;;;;;;;21.20;71.30;;;;;;5007089;28;1390;-71
2023/10/31 12:02:30;;;;;;;;;;;21.20;71.30;;;;;;5007600;28;1386;-71
2023/10/31 12:05:08;;;;;;;;;;;21.20;71.30;;;;;;5027586;28;1910;-71
2023/10/31 12:07:43;;;;;;;;;;;21.20;71.30;;;;;;4993502;28;1338;-71
2023/10/31 12:10:09;;;;;;;;;;;21.20;71.30;;;;;;4994556;28;1486;-71
2023/10/31 12:12:35;;;;;;;;;;;21.20;71.40;;;;;;5028029;28;1376;-71
2023/10/31 12:15:04;;;;;;;;;;;21.20;71.30;;;;;;4990483;28;1385;-71
2023/10/31 12:17:30;;;;;;;;;;;21.10;71.30;;;;;;5006704;28;1266;-70
2023/10/31 12:19:55;;;;;;;;;;;21.20;71.40;;;;;;5005454;28;1420;-68
2023/10/31 12:22:21;;;;;;;;;;;21.10;71.40;;;;;;5003948;28;1465;-70
2023/10/31 12:24:47;;;;;;;;;;;21.10;71.40;;;;;;5005187;28;2147;-69
2023/10/31 12:27:12;;;;;;;;;;;21.10;71.40;;;;;;5026751;28;1284;-69
2023/10/31 12:29:38;;;;;;;;;;;21.10;71.40;;;;;;5026657;28;1363;-70
2023/10/31 12:32:03;;;;;;;;;;;21.10;71.50;;;;;;5025670;28;1208;-70
2023/10/31 12:34:29;;;;;;;;;;;21.10;71.50;;;;;;5026279;28;1423;-71
2023/10/31 12:36:55;;;;;;;;;;;21.10;71.50;;;;;;5025237;28;1415;-71
2023/10/31 12:39:26;;;;;;;;;;;21.10;71.50;;;;;;5005486;28;1377;-71
2023/10/31 12:41:52;;;;;;;;;;;21.10;71.50;;;;;;5002618;28;1282;-71
2023/10/31 12:44:21;;;;;;;;;;;21.10;71.50;;;;;;5026922;28;1973;-70
2023/10/31 12:46:47;;;;;;;;;;;21.10;71.60;;;;;;5024883;28;1301;-71
2023/10/31 12:49:13;;;;;;;;;;;21.10;71.60;;;;;;5027669;28;1230;-71
2023/10/31 12:51:42;;;;;;;;;;;21.10;71.60;;;;;;5008026;28;1472;-72
2023/10/31 12:54:08;;;;;;;;;;;21.10;71.60;;;;;;5007045;28;1671;-70
2023/10/31 12:56:34;;;;;;;;;;;21.10;71.60;;;;;;5026445;28;1258;-69
2023/10/31 12:59:00;;;;;;;;;;;21.10;71.60;;;;;;5007607;28;1386;-71
2023/10/31 13:01:25;;;;;;;;;;;21.00;71.60;;;;;;5007208;28;1596;-71
2023/10/31 13:03:51;;;;;;;;;;;21.00;71.60;;;;;;5024083;28;1945;-71
2023/10/31 13:06:17;;;;;;;;;;;21.00;71.60;;;;;;5024196;28;1355;-72
2023/10/31 13:08:45;;;;;;;;;;;21.00;71.60;;;;;;5026266;28;1355;-71
2023/10/31 13:11:11;;;;;;;;;;;21.00;71.60;;;;;;5026568;28;1444;-72
2023/10/31 13:13:36;;;;;;;;;;;21.00;71.70;;;;;;5004755;28;1384;-72
2023/10/31 13:16:02;;;;;;;;;;;21.00;71.70;;;;;;5022503;28;1868;-72
2023/10/31 13:18:27;;;;;;;;;;;21.00;71.70;;;;;;5026689;28;1240;-71
2023/10/31 13:20:53;;;;;;;;;;;21.00;71.70;;;;;;5025975;28;1483;-72
2023/10/31 13:23:18;;;;;;;;;;;21.00;71.70;;;;;;5025881;28;1898;-71
2023/10/31 13:25:44;;;;;;;;;;;21.00;71.80;;;;;;5006611;28;1285;-71
2023/10/31 13:28:12;;;;;;;;;;;21.00;71.80;;;;;;5026414;28;1200;-70
2023/10/31 13:30:37;;;;;;;;;;;21.00;71.50;;;;;;5027121;28;1392;-72
2023/10/31 13:33:03;;;;;;;;;;;21.00;69.30;;;;;;5026422;28;1512;-71
2023/10/31 13:35:29;;;;;;;;;;;21.00;66.60;;;;;;5030993;28;1374;-71
2023/10/31 13:37:55;;;;;;;;;;;21.00;65.50;;;;;;5029620;28;1319;-71
2023/10/31 13:40:21;;;;;;;;;;;20.90;65.30;;;;;;5030281;28;1281;-71
2023/10/31 13:42:47;;;;;;;;;;;20.90;65.40;;;;;;5029401;28;1450;-71
2023/10/31 13:45:13;;;;;;;;;;;20.80;64.20;;;;;;5029623;28;1981;-71
2023/10/31 13:47:38;;;;;;;;;;;20.80;63.30;;;;;;5030755;28;1404;-71
2023/10/31 13:50:04;;;;;;;;;;;20.70;62.00;;;;;;5029221;28;1381;-71
2023/10/31 13:52:30;;;;;;;;;;;20.70;62.00;;;;;;5031176;28;1510;-70
2023/10/31 13:54:55;;;;;;;;;;;20.70;61.40;;;;;;5030588;28;1499;-71
2023/10/31 13:57:21;;;;;;;;;;;20.60;60.30;;;;;;5030986;28;1407;-70
2023/10/31 13:59:47;;;;;;;;;;;20.60;60.20;;;;;;5019844;28;1862;-70
2023/10/31 14:02:12;;;;;;;;;;;20.60;60.20;;;;;;5026198;28;1362;-71
2023/10/31 14:04:38;;;;;;;;;;;20.60;59.60;;;;;;5026673;28;1918;-71
2023/10/31 14:07:03;;;;;;;;;;;20.60;59.70;;;;;;5006708;28;1407;-72
2023/10/31 14:09:30;;;;;;;;;;;20.50;59.60;;;;;;5024067;28;2604;-71
2023/10/31 14:11:55;;;;;;;;;;;20.50;59.40;;;;;;5008764;28;1512;-72
2023/10/31 14:14:21;;;;;;;;;;;20.50;59.80;;;;;;5028964;28;1454;-70
2023/10/31 14:16:46;;;;;;;;;;;20.50;60.00;;;;;;5026449;28;1402;-71
2023/10/31 14:19:12;;;;;;;;;;;20.50;62.40;;;;;;5027981;28;1495;-72
2023/10/31 14:21:38;;;;;;;;;;;20.60;64.60;;;;;;5005930;28;1379;-72
2023/10/31 14:24:04;;;;;;;;;;;20.70;66.60;;;;;;5011375;28;1902;-71